map of EMA home
EMA - Airport
Location
City:  Derby, Leicestershire, England, United Kingdom
Name:East Midlands Airport
Old (Alt.):Castle Donnington
ICAO:EGNX
IATA:EMA

Details
Type:Airport (Aerodrome, Airfield)
Use:Public/Civil, International (customs port of entry)
Latitude:5249'52"N (52.831111)
Longitude:119'40"W (-1.327777)
Elevation:306 ft (93 m)
Variation:0.97W (WMM2015 magnetic declination)
0.15 annual change
Runways:1
Longest:9491 × 151 ft (2893 × 46 m), paved

Time
Time Zone:UTC+0 (DST+1)
Local Time:

Weather
METAR:EGNX 220950Z 36012KT 310V050 9999 SCT019 15/10 Q1019
TAF:EGNX 220500Z 2206/2306 33008KT 9999 FEW045
BECMG 2206/2208 03010KT
BECMG 2220/2223 6000 PROB30 2223/2306 4000 BR BKN014

Related Locations
Nearby:
Farthest:NZBA: 11828 mi / 19035 km
Balclutha, OTA, NZ

Find:

   beyond  
but within

Other Information
Maps:
NOTAMs:
Links:
Sources:

  
flag of United Kingdom
flag of England
  

Airport Diagram

Airport diagram for EMA

Airport diagram PDF

Sectional Chart

Flight Planning
at skyvector.com

Satellite Image

Google Maps Satellite view

 

Copyright © 2004-2018 Karl L. Swartz. All rights reserved.
The Great Circle Mapper name and logo are trademarks of the Great Circle Mapper.
All other trademarks mentioned herein belong to their respective owners.
Please see credits for attibutions and further copyright information.

  Follow gcmap on Facebook Follow gcmap on Twitter Follow gcmap on Google+ GCmap on LinkedIn

hCard Microformat

Geo Microformat